createdAt,value
2019-05-05T00:01:48.076Z,8.20
2019-05-05T00:04:28.786Z,8.17
2019-05-05T00:06:59.998Z,8.22
2019-05-05T00:09:31.341Z,8.32
2019-05-05T00:12:18.989Z,8.20
2019-05-05T00:15:08.128Z,8.22
2019-05-05T00:17:39.695Z,8.32
2019-05-05T00:20:11.572Z,8.26
2019-05-05T00:22:45.414Z,8.29
2019-05-05T00:25:16.264Z,8.17
2019-05-05T00:27:47.327Z,8.20
2019-05-05T00:30:18.475Z,8.03
2019-05-05T00:32:49.528Z,8.14
2019-05-05T00:35:21.000Z,8.10
2019-05-05T00:37:52.024Z,8.17
2019-05-05T00:40:24.835Z,8.00
2019-05-05T00:42:56.028Z,7.99
2019-05-05T00:45:29.136Z,7.92
2019-05-05T00:48:06.843Z,7.89
2019-05-05T00:50:37.977Z,7.87
2019-05-05T00:53:08.955Z,7.94
2019-05-05T00:55:39.955Z,7.88
2019-05-05T00:58:10.938Z,7.89
2019-05-05T01:00:54.796Z,7.84
2019-05-05T01:03:27.294Z,7.89
2019-05-05T01:06:14.984Z,7.82
2019-05-05T01:08:45.772Z,7.92
2019-05-05T01:11:17.723Z,7.86
2019-05-05T01:13:48.778Z,7.87
2019-05-05T01:16:20.013Z,7.85
2019-05-05T01:18:51.000Z,7.78
2019-05-05T01:21:24.290Z,7.88
2019-05-05T01:23:54.984Z,7.83
2019-05-05T01:26:26.067Z,7.87
2019-05-05T01:28:57.147Z,7.89
2019-05-05T01:31:28.262Z,7.83
2019-05-05T01:34:15.210Z,7.89
2019-05-05T01:36:48.592Z,7.94
2019-05-05T01:39:28.198Z,7.93
2019-05-05T01:42:01.891Z,7.90
2019-05-05T01:44:35.103Z,7.83
2019-05-05T01:47:06.030Z,7.88
2019-05-05T01:49:37.110Z,7.91
2019-05-05T01:52:08.278Z,7.96
2019-05-05T01:54:39.272Z,7.98
2019-05-05T01:57:10.602Z,7.99
2019-05-05T01:59:42.292Z,8.02
2019-05-05T02:02:14.596Z,8.11
2019-05-05T02:04:45.949Z,8.11
2019-05-05T02:07:17.014Z,8.01
2019-05-05T02:09:48.079Z,7.98
2019-05-05T02:12:19.173Z,7.97
2019-05-05T02:14:50.365Z,8.00
2019-05-05T02:17:21.500Z,8.02
2019-05-05T02:19:54.802Z,8.02
2019-05-05T02:22:25.604Z,8.01
2019-05-05T02:24:56.736Z,8.01
2019-05-05T02:27:27.879Z,8.06
2019-05-05T02:30:16.181Z,7.92
2019-05-05T02:32:50.014Z,7.88
2019-05-05T02:35:21.160Z,7.83
2019-05-05T02:37:52.156Z,8.01
2019-05-05T02:40:24.540Z,8.07
2019-05-05T02:42:56.025Z,7.92
2019-05-05T02:46:30.424Z,7.99
2019-05-05T02:49:05.294Z,8.01
2019-05-05T02:51:37.017Z,7.83
2019-05-05T02:54:08.170Z,7.95
2019-05-05T02:56:46.493Z,7.96
2019-05-05T02:59:25.680Z,8.05
2019-05-05T03:02:04.154Z,8.12
2019-05-05T03:04:36.267Z,8.02
2019-05-05T03:07:09.111Z,7.97
2019-05-05T03:09:43.975Z,7.88
2019-05-05T03:12:17.404Z,7.95
2019-05-05T03:14:50.477Z,7.99
2019-05-05T03:17:23.461Z,7.96
2019-05-05T03:19:55.379Z,7.85
2019-05-05T03:22:27.898Z,7.95
2019-05-05T03:24:59.274Z,7.99
2019-05-05T03:27:30.465Z,7.91
2019-05-05T03:30:05.014Z,7.89
2019-05-05T03:32:36.300Z,7.91
2019-05-05T03:35:07.800Z,7.92
2019-05-05T03:37:39.304Z,7.86
2019-05-05T03:40:18.963Z,7.85
2019-05-05T03:43:00.995Z,7.84
2019-05-05T03:45:53.971Z,7.84
2019-05-05T03:48:25.569Z,7.86
2019-05-05T03:50:57.764Z,7.84
2019-05-05T03:53:29.355Z,7.84
2019-05-05T03:56:00.732Z,7.81
2019-05-05T03:58:34.348Z,7.81
2019-05-05T04:01:34.598Z,7.82
2019-05-05T04:04:24.496Z,7.80
2019-05-05T04:06:56.508Z,7.75
2019-05-05T04:09:27.575Z,7.82
2019-05-05T04:11:58.680Z,7.78
2019-05-05T04:14:29.757Z,7.76
2019-05-05T04:17:24.476Z,7.72
2019-05-05T04:19:56.819Z,7.69
2019-05-05T04:22:27.907Z,7.74
2019-05-05T04:24:58.901Z,7.68
2019-05-05T04:27:30.234Z,7.79
2019-05-05T04:30:03.842Z,7.66
2019-05-05T04:32:36.185Z,7.67
2019-05-05T04:35:07.571Z,7.65
2019-05-05T04:37:38.710Z,7.49
2019-05-05T04:40:10.015Z,7.54
2019-05-05T04:42:41.028Z,7.57
2019-05-05T04:45:14.841Z,7.57
2019-05-05T04:47:49.142Z,7.64
2019-05-05T04:50:34.642Z,7.57
2019-05-05T04:53:09.753Z,7.50
2019-05-05T04:55:40.747Z,7.54
2019-05-05T04:58:13.671Z,7.59
2019-05-05T05:00:45.100Z,7.58
2019-05-05T05:03:35.090Z,7.60
2019-05-05T05:06:14.650Z,7.58
2019-05-05T05:08:45.608Z,7.52
2019-05-05T05:11:16.595Z,7.57
2019-05-05T05:13:47.656Z,7.52
2019-05-05T05:16:18.660Z,7.47
2019-05-05T05:18:49.660Z,7.55
2019-05-05T05:21:20.666Z,7.51
2019-05-05T05:23:53.449Z,7.47
2019-05-05T05:26:24.376Z,7.52
2019-05-05T05:28:55.383Z,7.38
2019-05-05T05:31:26.390Z,7.45
2019-05-05T05:33:57.473Z,7.41
2019-05-05T05:36:28.462Z,7.35
2019-05-05T05:39:05.759Z,7.28
2019-05-05T05:41:43.673Z,7.26
2019-05-05T05:44:38.396Z,7.22
2019-05-05T05:47:17.241Z,7.30
2019-05-05T05:49:54.429Z,7.37
2019-05-05T05:52:25.390Z,7.47
2019-05-05T05:54:56.403Z,7.38
2019-05-05T05:57:27.591Z,7.51
2019-05-05T05:59:58.550Z,7.47
2019-05-05T06:02:29.555Z,7.67
2019-05-05T06:05:00.545Z,7.66
2019-05-05T06:07:33.500Z,7.67
2019-05-05T06:10:04.949Z,7.67
2019-05-05T06:12:36.519Z,7.71
2019-05-05T06:15:07.753Z,7.56
2019-05-05T06:17:39.032Z,7.71
2019-05-05T06:20:10.315Z,7.70
2019-05-05T06:22:41.323Z,7.78
2019-05-05T06:25:16.012Z,7.77
2019-05-05T06:27:45.218Z,7.89
2019-05-05T06:30:16.754Z,7.89
2019-05-05T06:32:47.908Z,7.91
2019-05-05T06:35:19.351Z,7.98
2019-05-05T06:37:54.538Z,7.95
2019-05-05T06:40:41.214Z,8.03
2019-05-05T06:43:29.862Z,8.17
2019-05-05T06:46:04.073Z,8.24
2019-05-05T06:48:35.286Z,8.29
2019-05-05T06:51:06.757Z,8.28
2019-05-05T06:53:37.973Z,8.40
2019-05-05T06:56:09.099Z,8.45
2019-05-05T06:58:40.136Z,8.53
2019-05-05T07:01:11.231Z,8.46
2019-05-05T07:03:43.890Z,8.44
2019-05-05T07:06:15.212Z,8.54
2019-05-05T07:08:46.309Z,8.63
2019-05-05T07:11:17.688Z,8.55
2019-05-05T07:13:48.791Z,8.50
2019-05-05T07:16:19.845Z,8.60
2019-05-05T07:18:50.866Z,8.58
2019-05-05T07:21:23.929Z,8.55
2019-05-05T07:23:54.994Z,8.65
2019-05-05T07:26:26.082Z,8.61
2019-05-05T07:28:57.558Z,8.65
2019-05-05T07:31:28.626Z,8.78
2019-05-05T07:33:59.835Z,8.81
2019-05-05T07:36:38.899Z,8.79
2019-05-05T07:39:11.335Z,8.73
2019-05-05T07:41:44.552Z,8.65
2019-05-05T07:44:25.921Z,8.79
2019-05-05T07:46:48.108Z,8.85
2019-05-05T07:49:19.432Z,8.85
2019-05-05T07:51:50.440Z,8.96
2019-05-05T07:54:23.530Z,8.98
2019-05-05T07:56:54.658Z,9.05
2019-05-05T07:59:25.995Z,9.11
2019-05-05T08:01:57.760Z,9.11
2019-05-05T08:04:28.857Z,9.05
2019-05-05T08:06:59.912Z,9.04
2019-05-05T08:09:30.935Z,8.97
2019-05-05T08:12:04.209Z,9.08
2019-05-05T08:14:35.064Z,8.98
2019-05-05T08:17:29.543Z,8.99
2019-05-05T08:20:07.886Z,9.03
2019-05-05T08:22:39.130Z,9.12
2019-05-05T08:25:36.345Z,9.14
2019-05-05T08:28:17.449Z,9.18
2019-05-05T08:31:10.271Z,9.04
2019-05-05T08:33:41.352Z,9.17
2019-05-05T08:36:14.545Z,9.23
2019-05-05T08:38:45.290Z,9.14
2019-05-05T08:41:16.279Z,9.09
2019-05-05T08:43:47.373Z,9.09
2019-05-05T08:46:18.369Z,9.19
2019-05-05T08:48:50.477Z,9.18
2019-05-05T08:51:21.526Z,9.13
2019-05-05T08:53:54.424Z,9.22
2019-05-05T08:56:25.690Z,9.36
2019-05-05T08:58:57.935Z,9.46
2019-05-05T09:01:28.923Z,9.54
2019-05-05T09:04:00.058Z,9.59
2019-05-05T09:06:31.111Z,9.60
2019-05-05T09:09:03.858Z,9.66
2019-05-05T09:11:36.759Z,9.76
2019-05-05T09:14:08.023Z,9.75
2019-05-05T09:16:39.084Z,9.89
2019-05-05T09:19:14.671Z,9.86
2019-05-05T09:21:46.682Z,9.93
2019-05-05T09:24:36.599Z,9.90
2019-05-05T09:27:34.532Z,9.79
2019-05-05T09:30:06.522Z,9.80
2019-05-05T09:32:37.654Z,9.77
2019-05-05T09:35:09.211Z,9.77
2019-05-05T09:37:40.775Z,9.78
2019-05-05T09:40:13.906Z,9.85
2019-05-05T09:42:45.007Z,9.81
2019-05-05T09:45:17.308Z,9.88
2019-05-05T09:47:48.824Z,9.91
2019-05-05T09:50:20.204Z,10.04
2019-05-05T09:52:51.206Z,10.05
2019-05-05T09:55:24.078Z,10.11
2019-05-05T09:57:56.247Z,10.00
2019-05-05T10:00:27.399Z,10.02
2019-05-05T10:02:58.614Z,9.90
2019-05-05T10:05:29.869Z,9.94
2019-05-05T10:08:01.040Z,10.02
2019-05-05T10:10:33.723Z,10.04
2019-05-05T10:13:06.008Z,9.96
2019-05-05T10:15:37.074Z,10.16
2019-05-05T10:18:08.092Z,10.14
2019-05-05T10:20:39.327Z,10.24
2019-05-05T10:23:10.478Z,10.29
2019-05-05T10:25:47.790Z,10.29
2019-05-05T10:28:19.046Z,10.25
2019-05-05T10:30:50.346Z,10.25
2019-05-05T10:33:21.469Z,10.25
2019-05-05T10:35:54.115Z,10.27
2019-05-05T10:38:25.311Z,10.27
2019-05-05T10:40:56.412Z,10.27
2019-05-05T10:43:27.641Z,10.41
2019-05-05T10:46:03.968Z,10.33
2019-05-05T10:48:35.024Z,10.17
2019-05-05T10:51:06.856Z,10.20
2019-05-05T10:53:38.001Z,10.21
2019-05-05T10:56:09.003Z,10.16
2019-05-05T10:58:41.131Z,10.18
2019-05-05T11:01:14.357Z,10.18
2019-05-05T11:03:45.365Z,10.23
2019-05-05T11:06:16.993Z,10.21
2019-05-05T11:08:48.433Z,10.22
2019-05-05T11:11:19.512Z,10.25
2019-05-05T11:13:50.612Z,10.32
2019-05-05T11:16:21.728Z,10.39
2019-05-05T11:18:54.025Z,10.34
2019-05-05T11:21:25.415Z,10.33
2019-05-05T11:23:56.476Z,10.26
2019-05-05T11:26:27.566Z,10.41
2019-05-05T11:28:58.624Z,10.41
2019-05-05T11:31:29.819Z,10.35
2019-05-05T11:34:09.841Z,10.45
2019-05-05T11:37:03.712Z,10.52
2019-05-05T11:39:34.881Z,10.49
2019-05-05T11:42:07.038Z,10.61
2019-05-05T11:44:38.365Z,10.63
2019-05-05T11:47:09.502Z,10.53
2019-05-05T11:49:40.638Z,10.59
2019-05-05T11:52:11.620Z,10.65
2019-05-05T11:54:43.873Z,10.72
2019-05-05T11:57:15.524Z,10.74
2019-05-05T11:59:46.555Z,10.62
2019-05-05T12:02:17.578Z,10.71
2019-05-05T12:04:48.752Z,10.79
2019-05-05T12:07:19.761Z,10.89
2019-05-05T12:09:56.931Z,10.98
2019-05-05T12:12:28.099Z,11.07
2019-05-05T12:14:59.215Z,11.18
2019-05-05T12:17:36.562Z,11.23
2019-05-05T12:20:09.426Z,11.29
2019-05-05T12:22:40.416Z,11.31
2019-05-05T12:25:31.145Z,11.29
2019-05-05T12:28:06.897Z,11.32
2019-05-05T12:30:38.045Z,11.36
2019-05-05T12:33:09.054Z,11.40
2019-05-05T12:35:40.161Z,11.47
2019-05-05T12:38:11.169Z,11.57
2019-05-05T12:40:44.171Z,11.58
2019-05-05T12:43:15.409Z,11.64
2019-05-05T12:45:48.824Z,11.71
2019-05-05T12:48:29.280Z,11.68
2019-05-05T12:51:00.934Z,11.71
2019-05-05T12:53:31.929Z,11.66
2019-05-05T12:56:04.062Z,11.62
2019-05-05T12:58:35.476Z,11.62
2019-05-05T13:01:19.728Z,11.67
2019-05-05T13:03:50.781Z,11.75
2019-05-05T13:06:23.847Z,11.87
2019-05-05T13:08:54.985Z,12.00
2019-05-05T13:11:26.431Z,12.14
2019-05-05T13:13:58.710Z,12.06
2019-05-05T13:16:29.940Z,12.10
2019-05-05T13:19:04.387Z,12.13
2019-05-05T13:22:09.919Z,12.03
2019-05-05T13:24:55.845Z,11.82
2019-05-05T13:27:30.264Z,11.76
2019-05-05T13:30:01.301Z,11.73
2019-05-05T13:32:33.653Z,11.68
2019-05-05T13:35:06.374Z,11.67
2019-05-05T13:37:37.498Z,11.62
2019-05-05T13:40:09.469Z,11.66
2019-05-05T13:42:40.704Z,11.76
2019-05-05T13:45:28.453Z,11.80
2019-05-05T13:47:59.456Z,11.91
2019-05-05T13:50:34.634Z,12.04
2019-05-05T13:53:05.857Z,12.12
2019-05-05T13:55:37.767Z,12.23
2019-05-05T13:58:09.093Z,12.28
2019-05-05T14:00:40.384Z,12.42
2019-05-05T14:03:11.400Z,12.44
2019-05-05T14:05:43.711Z,12.37
2019-05-05T14:08:15.176Z,12.41
2019-05-05T14:10:46.310Z,12.41
2019-05-05T14:13:17.328Z,12.47
2019-05-05T14:15:48.632Z,12.57
2019-05-05T14:18:19.655Z,12.47
2019-05-05T14:20:50.669Z,12.49
2019-05-05T14:23:23.897Z,12.58
2019-05-05T14:25:54.685Z,12.56
2019-05-05T14:28:25.778Z,12.71
2019-05-05T14:31:02.637Z,12.64
2019-05-05T14:33:54.100Z,12.60
2019-05-05T14:36:38.362Z,12.58
2019-05-05T14:39:10.982Z,12.43
2019-05-05T14:41:44.482Z,12.36
2019-05-05T14:44:15.534Z,12.31
2019-05-05T14:46:46.777Z,12.13
2019-05-05T14:49:17.769Z,12.17
2019-05-05T14:51:48.848Z,12.20
2019-05-05T14:54:19.892Z,12.18
2019-05-05T14:56:50.977Z,12.25
2019-05-05T14:59:23.520Z,12.21
2019-05-05T15:01:54.570Z,12.26
2019-05-05T15:04:27.455Z,12.32
2019-05-05T15:07:23.919Z,12.25
2019-05-05T15:10:14.486Z,12.27
2019-05-05T15:12:49.549Z,12.20
2019-05-05T15:15:20.738Z,12.25
2019-05-05T15:17:53.698Z,12.21
2019-05-05T15:20:24.629Z,12.26
2019-05-05T15:22:55.682Z,12.27
2019-05-05T15:25:26.990Z,12.08
2019-05-05T15:27:59.098Z,12.05
2019-05-05T15:30:30.119Z,12.13
2019-05-05T15:33:01.515Z,12.12
2019-05-05T15:35:33.971Z,12.05
2019-05-05T15:38:05.252Z,12.11
2019-05-05T15:40:36.317Z,12.09
2019-05-05T15:43:08.466Z,12.18
2019-05-05T15:45:39.595Z,12.24
2019-05-05T15:48:10.660Z,12.15
2019-05-05T15:50:43.839Z,12.11
2019-05-05T15:53:14.663Z,12.14
2019-05-05T15:55:45.936Z,12.20
2019-05-05T15:58:20.670Z,12.22
2019-05-05T16:00:50.353Z,12.15
2019-05-05T16:03:21.383Z,12.21
2019-05-05T16:05:54.227Z,12.13
2019-05-05T16:08:25.165Z,12.08
2019-05-05T16:10:56.243Z,12.11
2019-05-05T16:13:27.399Z,12.08
2019-05-05T16:16:19.360Z,12.04
2019-05-05T16:19:05.555Z,12.03
2019-05-05T16:21:40.339Z,12.07
2019-05-05T16:24:20.013Z,12.00
2019-05-05T16:26:51.134Z,11.96
2019-05-05T16:29:23.783Z,12.05
2019-05-05T16:31:55.025Z,12.11
2019-05-05T16:34:26.208Z,11.92
2019-05-05T16:36:57.337Z,11.95
2019-05-05T16:39:28.361Z,11.95
2019-05-05T16:41:59.434Z,11.93
2019-05-05T16:44:30.497Z,11.88
2019-05-05T16:47:01.587Z,11.90
2019-05-05T16:49:35.294Z,11.87
2019-05-05T16:52:11.076Z,11.93
2019-05-05T16:55:04.522Z,11.91
2019-05-05T16:57:36.904Z,11.92
2019-05-05T17:00:08.909Z,11.87
2019-05-05T17:02:40.025Z,11.91
2019-05-05T17:05:13.634Z,11.85
2019-05-05T17:07:44.246Z,11.87
2019-05-05T17:10:15.837Z,11.90
2019-05-05T17:12:47.037Z,11.84
2019-05-05T17:15:45.580Z,11.91
2019-05-05T17:18:54.180Z,11.82
2019-05-05T17:21:44.552Z,11.86
2019-05-05T17:24:15.752Z,11.92
2019-05-05T17:26:46.840Z,11.89
2019-05-05T17:29:17.930Z,11.95
2019-05-05T17:31:49.102Z,11.97
2019-05-05T17:34:20.129Z,11.96
2019-05-05T17:36:51.216Z,11.94
2019-05-05T17:39:23.875Z,11.95
2019-05-05T17:42:05.684Z,11.89
2019-05-05T17:44:55.624Z,11.91
2019-05-05T17:47:34.353Z,11.94
2019-05-05T17:50:11.724Z,11.93
2019-05-05T17:52:53.739Z,11.90
2019-05-05T17:55:29.061Z,11.93
2019-05-05T17:58:02.593Z,11.82
2019-05-05T18:00:35.308Z,11.77
2019-05-05T18:03:08.501Z,11.76
2019-05-05T18:05:57.771Z,11.72
2019-05-05T18:08:59.867Z,11.72
2019-05-05T18:11:44.065Z,11.72
2019-05-05T18:14:20.098Z,11.66
2019-05-05T18:16:51.280Z,11.63
2019-05-05T18:19:22.357Z,11.57
2019-05-05T18:21:54.739Z,11.57
2019-05-05T18:24:25.959Z,11.60
2019-05-05T18:26:57.210Z,11.60
2019-05-05T18:29:28.287Z,11.54
2019-05-05T18:31:59.730Z,11.54
2019-05-05T18:34:31.050Z,11.51
2019-05-05T18:37:03.739Z,11.45
2019-05-05T18:39:34.965Z,11.45
2019-05-05T18:42:34.165Z,11.39
2019-05-05T18:45:09.467Z,11.33
2019-05-05T18:47:40.453Z,11.26
2019-05-05T18:50:13.629Z,11.28
2019-05-05T18:52:47.142Z,11.18
2019-05-05T18:55:17.608Z,11.16
2019-05-05T18:57:48.775Z,11.14
2019-05-05T19:00:30.097Z,11.07
2019-05-05T19:03:17.476Z,11.05
2019-05-05T19:05:49.253Z,11.04
2019-05-05T19:08:29.452Z,11.01
2019-05-05T19:11:00.607Z,10.93
2019-05-05T19:13:33.892Z,10.91
2019-05-05T19:16:04.513Z,10.92
2019-05-05T19:18:36.630Z,10.87
2019-05-05T19:21:29.357Z,10.92
2019-05-05T19:24:00.515Z,10.88
2019-05-05T19:26:33.646Z,10.77
2019-05-05T19:29:05.158Z,10.79
2019-05-05T19:31:36.686Z,10.85
2019-05-05T19:34:09.101Z,10.86
2019-05-05T19:36:40.168Z,10.81
2019-05-05T19:39:13.552Z,10.76
2019-05-05T19:41:46.918Z,10.74
2019-05-05T19:44:17.009Z,10.78
2019-05-05T19:46:56.668Z,10.84
2019-05-05T19:49:28.748Z,10.76
2019-05-05T19:51:59.834Z,10.72
2019-05-05T19:54:30.918Z,10.73
2019-05-05T19:57:03.815Z,10.75
2019-05-05T19:59:35.855Z,10.76
2019-05-05T20:02:08.095Z,10.73
2019-05-05T20:04:39.588Z,10.72
2019-05-05T20:07:10.764Z,10.69
2019-05-05T20:09:43.565Z,10.69
2019-05-05T20:12:14.846Z,10.64
2019-05-05T20:14:45.982Z,10.56
2019-05-05T20:17:23.350Z,10.58
2019-05-05T20:19:54.731Z,10.56
2019-05-05T20:22:25.847Z,10.49
2019-05-05T20:24:56.962Z,10.68
2019-05-05T20:27:28.086Z,10.60
2019-05-05T20:30:00.347Z,10.55
2019-05-05T20:32:40.760Z,10.53
2019-05-05T20:35:35.272Z,10.50
2019-05-05T20:38:26.759Z,10.46
2019-05-05T20:41:14.542Z,10.39
2019-05-05T20:43:45.839Z,10.22
2019-05-05T20:46:17.670Z,10.13
2019-05-05T20:48:48.810Z,10.20
2019-05-05T20:51:19.931Z,10.17
2019-05-05T20:53:50.951Z,10.14
2019-05-05T20:56:22.453Z,10.05
2019-05-05T20:58:54.930Z,10.09
2019-05-05T21:01:27.234Z,10.08
2019-05-05T21:03:58.246Z,9.93
2019-05-05T21:06:29.279Z,9.90
2019-05-05T21:09:00.285Z,9.82
2019-05-05T21:11:31.951Z,9.75
2019-05-05T21:14:04.030Z,9.79
2019-05-05T21:16:35.097Z,9.79
2019-05-05T21:19:06.233Z,9.65
2019-05-05T21:21:39.342Z,9.67
2019-05-05T21:24:10.480Z,9.69
2019-05-05T21:27:04.077Z,9.72
2019-05-05T21:29:41.422Z,9.74
2019-05-05T21:32:07.605Z,9.53
2019-05-05T21:34:39.355Z,9.54
2019-05-05T21:37:10.430Z,9.44
2019-05-05T21:39:41.496Z,9.61
2019-05-05T21:42:14.112Z,9.50
2019-05-05T21:44:45.214Z,9.48
2019-05-05T21:47:16.211Z,9.42
2019-05-05T21:49:47.276Z,9.53
2019-05-05T21:52:34.766Z,9.36
2019-05-05T21:55:18.580Z,9.45
2019-05-05T21:58:05.069Z,9.35
2019-05-05T22:00:54.768Z,9.28
2019-05-05T22:03:34.563Z,9.28
2019-05-05T22:06:06.977Z,9.23
2019-05-05T22:08:38.038Z,9.22
2019-05-05T22:11:09.555Z,8.94
2019-05-05T22:13:40.561Z,9.01
2019-05-05T22:16:13.504Z,9.10
2019-05-05T22:18:46.697Z,9.03
2019-05-05T22:21:26.532Z,8.78
2019-05-05T22:24:16.089Z,8.91
2019-05-05T22:26:47.326Z,8.84
2019-05-05T22:29:18.605Z,8.81
2019-05-05T22:31:49.712Z,8.86
2019-05-05T22:34:20.811Z,8.98
2019-05-05T22:36:51.801Z,9.04
2019-05-05T22:39:24.356Z,8.96
2019-05-05T22:41:55.648Z,8.93
2019-05-05T22:44:26.703Z,9.03
2019-05-05T22:46:57.744Z,9.03
2019-05-05T22:49:28.893Z,9.04
2019-05-05T22:52:00.573Z,8.97
2019-05-05T22:54:33.674Z,8.92
2019-05-05T22:57:04.742Z,8.86
2019-05-05T22:59:35.803Z,8.83
2019-05-05T23:02:06.953Z,8.75
2019-05-05T23:04:47.936Z,8.69
2019-05-05T23:07:24.339Z,8.75
2019-05-05T23:09:55.348Z,8.69
2019-05-05T23:12:26.350Z,8.61
2019-05-05T23:14:57.641Z,8.45
2019-05-05T23:17:43.913Z,8.61
2019-05-05T23:21:10.041Z,8.56
2019-05-05T23:23:56.325Z,8.60
2019-05-05T23:26:28.792Z,8.57
2019-05-05T23:29:00.611Z,8.57
2019-05-05T23:31:33.447Z,8.51
2019-05-05T23:34:04.586Z,8.54
2019-05-05T23:36:35.657Z,8.43
2019-05-05T23:39:08.022Z,8.54
2019-05-05T23:41:39.791Z,8.65
2019-05-05T23:44:10.904Z,8.62
2019-05-05T23:46:41.980Z,8.64
2019-05-05T23:49:13.756Z,8.54
2019-05-05T23:51:44.938Z,8.67
2019-05-05T23:54:15.939Z,8.65
2019-05-05T23:56:48.175Z,8.60
2019-05-05T23:59:19.206Z,8.56
